»·PEaware :: N695DS KSNA-KSBA

N695DS :: KSNA-KSBA

FLIGHT INFORMATION

Flight Status: Arrived
Operator: Privately registered:
United States
More flights under this callsign
Pilot: Christopher S. (2105)
Aircraft: Unknown
(DA62)
More flights by this aircraft type
Origin: KSNA John Wayne-Orange Co
United States
Destination: KSBA Santa Barbara Mun
United States
More flights between these airports :: More routes between these airports
Route: SLI V23 LAX V299 VTU VTU282R KWANG
File this flight plan on PilotEdge
Remarks: TEC route CSTP21
Altitude:
(Current/Filed)
6,000ft
Speed:
(Current/Filed)
170kts
Departed: 14-Mar-19 08:30 PM
Arrived: 14-Mar-19 09:15 PM
Distance/Time
Traveled:
108nm/0:45
Distance/Time
To Go:
Arrived

Flight Plot

Page will automatically refresh every two minutes.


Map Options




Map Legend


Flown Route
Filed Route
Departure Airport
Arrival Airport
Navaid (VOR, NDB)
Fix

Horizontal Profiles

Position Reports

Time Latitude Longitude Heading Altitude Ground
Speed
14-Mar-19 20:10 33.674281 -117.871857 116 60ft 0kts
14-Mar-19 20:11 33.674281 -117.871857 116 60ft 0kts
14-Mar-19 20:12 33.674281 -117.871857 116 60ft 0kts
14-Mar-19 20:13 33.674281 -117.871857 116 60ft 0kts
14-Mar-19 20:14 33.674281 -117.871857 116 60ft 0kts
14-Mar-19 20:15 33.674281 -117.871857 116 60ft 0kts
14-Mar-19 20:16 33.674281 -117.871857 116 60ft 0kts
14-Mar-19 20:17 33.674281 -117.871857 116 60ft 0kts
14-Mar-19 20:18 33.674281 -117.871857 116 60ft 0kts
14-Mar-19 20:19 33.674281 -117.871857 116 60ft 0kts
14-Mar-19 20:20 33.674281 -117.871857 116 60ft 0kts
14-Mar-19 20:21 33.674281 -117.871857 116 60ft 0kts
14-Mar-19 20:22 33.674281 -117.871857 116 60ft 0kts
14-Mar-19 20:23 33.674281 -117.871857 116 60ft 0kts
14-Mar-19 20:24 33.674007 -117.871402 209 60ft 10kts
14-Mar-19 20:25 33.669943 -117.873883 176 60ft 20kts
14-Mar-19 20:26 33.668869 -117.874231 250 60ft 0kts
14-Mar-19 20:27 33.668235 -117.874541 114 60ft 0kts
14-Mar-19 20:28 33.668474 -117.873378 32 60ft 29kts
14-Mar-19 20:29 33.689662 -117.862339 358 810ft 117kts
14-Mar-19 20:30 33.702092 -117.893811 249 2113ft 126kts
14-Mar-19 20:31 33.689137 -117.941324 249 2026ft 157kts
14-Mar-19 20:32 33.675794 -117.990264 248 1968ft 151kts
14-Mar-19 20:33 33.662230 -118.036804 251 1973ft 146kts
14-Mar-19 20:34 33.650677 -118.083033 249 1979ft 142kts
14-Mar-19 20:35 33.637050 -118.127717 249 1983ft 142kts
14-Mar-19 20:36 33.623386 -118.171212 249 2788ft 131kts
14-Mar-19 20:37 33.610330 -118.210434 249 3971ft 124kts
14-Mar-19 20:38 33.596888 -118.248396 249 5164ft 124kts
14-Mar-19 20:39 33.606884 -118.278642 337 5997ft 143kts
14-Mar-19 20:40 33.648269 -118.298386 338 5991ft 169kts
14-Mar-19 20:41 33.687225 -118.316688 338 5990ft 171kts
14-Mar-19 20:42 33.731622 -118.337476 338 5990ft 172kts
14-Mar-19 20:43 33.776274 -118.358371 338 5990ft 172kts
14-Mar-19 20:44 33.820289 -118.378987 338 5989ft 172kts
14-Mar-19 20:45 33.864473 -118.399703 338 5989ft 172kts
14-Mar-19 20:46 33.908485 -118.420362 338 5989ft 173kts
14-Mar-19 20:47 33.940408 -118.459139 295 5991ft 172kts
14-Mar-19 20:48 33.958779 -118.512634 292 5989ft 172kts
14-Mar-19 20:49 33.976130 -118.566552 291 5989ft 172kts
14-Mar-19 20:50 33.993243 -118.620317 292 5991ft 171kts
14-Mar-19 20:51 34.010129 -118.673488 292 5994ft 172kts
14-Mar-19 20:52 34.027231 -118.727413 293 5997ft 173kts
14-Mar-19 20:53 34.043695 -118.782314 291 6001ft 175kts
14-Mar-19 20:54 34.058907 -118.838780 291 6005ft 179kts
14-Mar-19 20:55 34.074320 -118.896357 291 6007ft 181kts
14-Mar-19 20:56 34.089802 -118.954371 290 6007ft 182kts
14-Mar-19 20:57 34.105367 -119.012822 290 5982ft 184kts
14-Mar-19 20:58 34.123942 -119.070048 299 5982ft 182kts
14-Mar-19 20:59 34.146506 -119.124161 299 5982ft 179kts
14-Mar-19 21:00 34.168970 -119.177783 299 5982ft 177kts
14-Mar-19 21:01 34.191000 -119.230408 299 5982ft 175kts
14-Mar-19 21:02 34.212875 -119.282725 298 5981ft 173kts
14-Mar-19 21:03 34.234495 -119.334642 298 5981ft 172kts
14-Mar-19 21:04 34.256100 -119.386512 298 5982ft 172kts
14-Mar-19 21:05 34.275268 -119.432579 298 5983ft 172kts
14-Mar-19 21:06 34.298135 -119.487569 298 5123ft 189kts
14-Mar-19 21:07 34.320099 -119.544594 294 3947ft 185kts
14-Mar-19 21:08 34.339466 -119.598606 294 3972ft 171kts
14-Mar-19 21:09 34.358980 -119.653050 293 3272ft 176kts
14-Mar-19 21:10 34.378359 -119.707229 293 2569ft 171kts
14-Mar-19 21:11 34.396751 -119.757090 294 1435ft 163kts
14-Mar-19 21:12 34.418099 -119.801857 304 520ft 142kts
14-Mar-19 21:13 34.427923 -119.837690 270 12ft 72kts
14-Mar-19 21:15 34.428473 -119.845969 42 14ft 0kts
14-Mar-19 21:16 34.428974 -119.845737 3 14ft 9kts
14-Mar-19 21:17 34.429507 -119.845304 115 14ft 0kts

Navigation Log

Ident Type
Flight plan parsing failed, navigation log unavailable